Changi, Singapore
Current Conditions -  °F | °C
As of 8:00 PM on Friday 19 Dec 2014 (Local Time) from WSSS Reporting Station
Scattered Clouds Scattered Clouds  
Wind Chill: 75°   Ceiling: Unl
Heat Index: 75°   Visibility: 6mi
Dew Point: 73°   Wind: 2mph
Humidity: 94%   Direction: NA
Pressure: 29.8"   Gusts: NA
Location:  1.39°N, 103.98°E
Report Text: WSSS 191200Z VRB02KT 9999 FEW016 SCT180 24/23 Q1009 NOSIG
Loading
Personal Weather Stations






























Interactive Weather Map New forecast layout! Learn more

10-Day Weather Forecast

Advertisements
Track Severe Weather on mobile